Time;durP1;ratioP1;P1;durP2;ratioP2;P2;SDS_P1;SDS_P2;PMS_P1;PMS_P2;Temp;Humidity;BMP_temperature;BMP_pressure;BME280_temperature;BME280_humidity;BME280_pressure;Samples;Min_cycle;Max_cycle;Signal;HPM_P1;HPM_P2
2022/11/28 00:01:06;;;;;;;10.63;5.28;;;;;;;3.28;75.12;94459.31;4965887;28;20046;-85
2022/11/28 00:03:31;;;;;;;7.97;4.95;;;;;;;3.29;75.27;94460.88;4964472;28;20034;-82
2022/11/28 00:06:05;;;;;;;8.48;4.97;;;;;;;3.28;75.16;94464.56;4964683;28;20027;-86
2022/11/28 00:08:31;;;;;;;10.63;5.70;;;;;;;3.29;75.05;94460.09;4997321;28;20045;-86
2022/11/28 00:10:57;;;;;;;12.32;5.70;;;;;;;3.27;75.03;94462.19;4965971;28;20081;-86
2022/11/28 00:13:23;;;;;;;12.15;5.82;;;;;;;3.23;75.15;94461.88;4965478;28;20023;-84
2022/11/28 00:15:59;;;;;;;9.57;5.55;;;;;;;3.21;75.21;94456.09;4965402;28;20110;-84
2022/11/28 00:18:25;;;;;;;12.93;6.82;;;;;;;3.19;75.11;94458.16;4965560;28;20035;-85
2022/11/28 00:20:51;;;;;;;11.55;6.10;;;;;;;3.16;75.29;94453.41;4964231;28;20035;-85
2022/11/28 00:23:16;;;;;;;12.13;6.50;;;;;;;3.15;75.40;94459.72;4965641;28;20023;-85
2022/11/28 00:25:42;;;;;;;14.43;7.43;;;;;;;3.16;75.54;94461.31;4965401;28;20073;-85
2022/11/28 00:28:08;;;;;;;14.18;7.40;;;;;;;3.12;75.54;94461.03;4964920;28;20098;-84
2022/11/28 00:30:38;;;;;;;12.57;7.20;;;;;;;3.16;75.54;94453.41;4965217;28;20050;-84
2022/11/28 00:33:03;;;;;;;13.18;7.15;;;;;;;3.17;75.45;94460.25;4965452;28;20019;-84
2022/11/28 00:35:29;;;;;;;13.63;7.45;;;;;;;3.20;75.36;94457.13;4965225;28;20022;-84
2022/11/28 00:37:55;;;;;;;12.73;7.45;;;;;;;3.18;75.38;94454.75;4965410;28;20023;-86
2022/11/28 00:40:20;;;;;;;12.70;7.43;;;;;;;3.19;75.62;94455.53;4965139;28;20019;-86
2022/11/28 00:42:46;;;;;;;12.85;7.93;;;;;;;3.16;75.28;94454.22;4996323;28;20264;-86
2022/11/28 00:45:11;;;;;;;12.88;7.40;;;;;;;3.15;75.30;94451.81;4965250;28;20026;-86
2022/11/28 00:47:37;;;;;;;17.27;8.88;;;;;;;3.13;75.48;94461.81;4965190;28;20026;-86
2022/11/28 00:50:03;;;;;;;15.25;8.13;;;;;;;3.15;75.76;94451.81;4965080;28;20058;-86
2022/11/28 00:52:31;;;;;;;14.93;7.93;;;;;;;3.14;75.21;94456.31;4964959;28;20046;-86
2022/11/28 00:54:59;;;;;;;11.10;6.55;;;;;;;3.11;75.35;94453.38;4965038;28;20019;-85
2022/11/28 00:57:25;;;;;;;11.65;6.45;;;;;;;3.09;75.39;94450.97;4964801;28;20019;-86
2022/11/28 00:59:50;;;;;;;11.63;6.40;;;;;;;3.11;75.53;94453.38;4996222;28;20027;-86
2022/11/28 01:02:16;;;;;;;8.90;5.70;;;;;;;3.05;75.51;94455.16;4965010;28;20031;-86
2022/11/28 01:04:41;;;;;;;11.10;5.97;;;;;;;3.03;75.51;94448.56;4964961;28;20266;-86
2022/11/28 01:07:07;;;;;;;10.77;6.32;;;;;;;3.05;75.49;94455.16;4964601;28;20039;-86
2022/11/28 01:09:32;;;;;;;11.15;5.22;;;;;;;3.05;75.68;94457.00;4964857;28;20027;-87
2022/11/28 01:11:58;;;;;;;8.85;5.72;;;;;;;3.04;75.77;94444.91;4964755;28;20019;-86
2022/11/28 01:14:24;;;;;;;9.43;5.40;;;;;;;3.03;75.82;94448.56;4964628;28;20053;-86
2022/11/28 01:16:50;;;;;;;11.18;5.85;;;;;;;3.00;75.85;94452.50;4965287;28;20046;-89
2022/11/28 01:19:16;;;;;;;10.18;5.95;;;;;;;3.00;76.06;94447.22;4965576;28;20222;-89
2022/11/28 01:21:41;;;;;;;7.90;5.03;;;;;;;3.01;75.60;94444.34;4965515;28;20388;-91
2022/11/28 01:24:07;;;;;;;10.00;5.45;;;;;;;3.00;75.97;94437.47;4965513;28;20027;-90
2022/11/28 01:26:33;;;;;;;9.32;5.82;;;;;;;3.02;75.89;94437.25;4965407;28;20501;-90
2022/11/28 01:28:59;;;;;;;8.63;5.05;;;;;;;3.00;76.00;94436.69;4965434;28;20023;-91
2022/11/28 01:31:29;;;;;;;8.48;4.93;;;;;;;3.01;76.05;94444.34;4965490;28;20023;-91
2022/11/28 01:33:55;;;;;;;8.77;4.80;;;;;;;3.01;75.82;94447.00;4965488;28;20023;-91
2022/11/28 01:36:21;;;;;;;10.45;5.60;;;;;;;3.01;75.73;94439.09;4965443;28;20047;-91
2022/11/28 01:38:47;;;;;;;8.40;4.55;;;;;;;3.02;75.88;94437.25;4965402;28;20023;-90
2022/11/28 01:41:16;;;;;;;7.85;4.85;;;;;;;3.02;75.78;94431.97;4965410;28;20066;-91
2022/11/28 01:44:00;;;;;;;8.27;4.68;;;;;;;3.00;75.76;94434.84;4965612;28;20034;-91
2022/11/28 01:46:25;;;;;;;7.82;4.75;;;;;;;3.01;75.76;94428.56;4996512;28;20332;-89
2022/11/28 01:48:52;;;;;;;8.70;5.20;;;;;;;3.05;75.71;94435.94;4965486;28;20016;-90
2022/11/28 01:51:18;;;;;;;6.32;4.18;;;;;;;3.05;75.49;94428.03;4965348;28;20140;-89
2022/11/28 01:53:46;;;;;;;7.65;4.68;;;;;;;3.07;75.54;94423.31;4965258;28;20152;-90
2022/11/28 01:56:16;;;;;;;6.85;4.63;;;;;;;3.06;75.28;94417.25;4965111;28;20348;-88
2022/11/28 01:58:48;;;;;;;7.68;4.22;;;;;;;3.03;75.45;94416.97;4965439;28;20125;-89
2022/11/28 02:01:15;;;;;;;6.85;3.95;;;;;;;3.00;75.49;94437.47;4964137;28;20023;-88
2022/11/28 02:03:43;;;;;;;6.30;3.63;;;;;;;3.03;75.55;94419.59;4965057;28;20027;-89
2022/11/28 02:06:12;;;;;;;6.30;3.55;;;;;;;2.99;75.58;94419.28;4967706;28;20027;-89
2022/11/28 02:08:38;;;;;;;6.28;3.33;;;;;;;2.97;75.69;94426.66;4968897;28;20029;-91
2022/11/28 02:11:24;;;;;;;5.28;3.15;;;;;;;2.93;75.94;94423.75;4968760;28;20050;-91
2022/11/28 02:14:24;;;;;;;4.68;2.78;;;;;;;2.93;76.12;94417.66;5000391;28;20027;-91
2022/11/28 02:17:28;;;;;;;4.50;2.50;;;;;;;2.91;76.08;94407.41;4952795;28;20067;-91
2022/11/28 02:19:59;;;;;;;;;;;;;;;2.94;75.86;94409.53;4969209;28;20062;-91
2022/11/28 02:22:43;;;;;;;3.50;2.22;;;;;;;2.92;76.04;94408.19;4968848;28;19910;-91
2022/11/28 02:25:30;;;;;;;3.05;1.92;;;;;;;2.91;76.10;94407.41;4968614;28;20310;-87
2022/11/28 02:28:04;;;;;;;4.63;2.42;;;;;;;2.87;76.31;94414.22;4968145;28;20023;-87
2022/11/28 02:30:57;;;;;;;3.35;1.73;;;;;;;2.91;76.00;94417.94;4968073;28;20027;-87
2022/11/28 02:33:25;;;;;;;;;;;;;;;2.87;76.01;94402.88;4968610;28;20057;-87
2022/11/28 02:35:58;;;;;;;2.75;1.50;;;;;;;2.84;76.37;94408.66;4967910;28;19906;-87
2022/11/28 02:38:29;;;;;;;2.80;1.60;;;;;;;2.79;76.55;94402.31;4967826;28;20031;-87
2022/11/28 02:41:21;;;;;;;2.95;1.70;;;;;;;2.81;76.44;94408.09;4967555;28;20031;-87
2022/11/28 02:44:24;;;;;;;3.55;1.67;;;;;;;2.82;76.55;94398.38;4960462;28;20042;-87
2022/11/28 02:47:01;;;;;;;;;;;;;;;2.83;76.58;94410.50;4961498;28;20347;-87
2022/11/28 02:49:30;;;;;;;2.88;1.70;;;;;;;2.77;76.75;94404.38;4967426;28;19913;-87
2022/11/28 02:52:02;;;;;;;2.10;1.25;;;;;;;2.79;76.72;94412.84;4967526;28;20027;-87
2022/11/28 02:54:30;;;;;;;2.67;1.50;;;;;;;2.86;76.57;94419.72;4966305;28;20031;-87
2022/11/28 02:56:56;;;;;;;2.90;1.52;;;;;;;2.88;76.38;94413.16;4966658;28;20031;-89
2022/11/28 02:59:32;;;;;;;3.00;1.70;;;;;;;2.85;76.42;94405.78;4967328;28;20128;-88
2022/11/28 03:01:59;;;;;;;2.88;1.60;;;;;;;2.90;76.62;94410.28;4967497;28;20059;-87
2022/11/28 03:04:41;;;;;;;2.55;1.60;;;;;;;2.92;76.23;94408.97;4967210;28;20038;-87
2022/11/28 03:07:13;;;;;;;3.20;1.60;;;;;;;2.96;76.11;94417.97;4967477;28;20322;-87
2022/11/28 03:10:02;;;;;;;2.47;1.60;;;;;;;2.96;76.17;94414.53;4998526;28;20063;-88
2022/11/28 03:12:40;;;;;;;1.55;1.00;;;;;;;2.95;75.90;94413.75;4967460;28;20063;-87
2022/11/28 03:15:08;;;;;;;2.30;1.35;;;;;;;2.94;76.00;94420.06;4967251;28;20249;-87
2022/11/28 03:18:06;;;;;;;2.47;1.38;;;;;;;3.00;76.00;94420.91;4997123;28;20246;-88
2022/11/28 03:20:43;;;;;;;2.78;1.60;;;;;;;2.99;75.76;94414.84;4967226;28;20031;-87
2022/11/28 03:23:17;;;;;;;2.90;1.63;;;;;;;3.01;75.70;94414.56;4967343;28;20019;-87
2022/11/28 03:25:57;;;;;;;3.90;1.60;;;;;;;3.04;75.63;94421.97;4967248;28;20066;-87
2022/11/28 03:28:44;;;;;;;1.98;1.23;;;;;;;3.05;75.54;94414.88;4967298;28;20027;-87
2022/11/28 03:31:22;;;;;;;2.35;1.45;;;;;;;3.04;75.89;94416.72;4998284;28;20023;-87
2022/11/28 03:33:54;;;;;;;2.95;1.45;;;;;;;3.05;75.73;94420.91;4967022;28;20033;-86
2022/11/28 03:37:00;;;;;;;3.13;1.40;;;;;;;3.06;75.64;94419.09;4967055;28;20086;-87
2022/11/28 03:39:32;;;;;;;4.10;1.90;;;;;;;3.05;75.58;94413.03;4966572;28;20286;-87
2022/11/28 03:42:13;;;;;;;3.05;1.45;;;;;;;3.06;75.57;94419.09;4966962;28;20034;-89
2022/11/28 03:44:48;;;;;;;3.88;1.77;;;;;;;3.06;75.62;94413.84;4967397;28;20099;-89
2022/11/28 03:47:14;;;;;;;4.78;1.70;;;;;;;3.07;75.57;94416.19;4998315;28;20027;-90
2022/11/28 03:49:46;;;;;;;2.55;1.45;;;;;;;3.07;75.52;94415.41;4967397;28;20074;-92
2022/11/28 03:52:15;;;;;;;;;;;;;;;3.05;75.57;94413.03;4966814;28;20221;-92
2022/11/28 03:54:50;;;;;;;2.55;1.40;;;;;;;3.00;75.55;94416.41;4967224;28;19906;-91
2022/11/28 03:57:41;;;;;;;2.10;1.42;;;;;;;2.99;75.74;94412.22;4967047;28;20037;-92
2022/11/28 04:00:10;;;;;;;3.33;1.73;;;;;;;2.99;75.74;94417.47;4998122;28;20074;-89
2022/11/28 04:02:54;;;;;;;2.72;1.80;;;;;;;2.98;75.85;94402.69;4966831;28;20019;-89
2022/11/28 04:05:46;;;;;;;4.20;1.85;;;;;;;3.00;75.71;94405.88;4966843;28;20043;-89
2022/11/28 04:08:30;;;;;;;3.05;1.63;;;;;;;3.03;75.59;94406.41;4998118;28;20031;-89
2022/11/28 04:11:05;;;;;;;3.53;2.20;;;;;;;3.03;75.88;94404.56;4965607;28;20065;-89
2022/11/28 04:13:43;;;;;;;2.53;1.60;;;;;;;3.01;75.75;94404.03;4965625;28;20070;-83
2022/11/28 04:16:36;;;;;;;2.85;1.30;;;;;;;3.01;75.86;94410.13;4996926;28;20047;-83
2022/11/28 04:19:15;;;;;;;2.83;1.38;;;;;;;2.99;75.76;94398.22;4965627;28;20034;-84
2022/11/28 04:21:53;;;;;;;2.60;1.40;;;;;;;2.93;75.75;94409.75;4966003;28;20042;-84
2022/11/28 04:24:23;;;;;;;2.53;1.70;;;;;;;2.92;75.78;94403.72;4965765;28;20044;-84
2022/11/28 04:26:55;;;;;;;3.45;1.88;;;;;;;2.90;76.15;94411.06;4965439;28;20034;-85
2022/11/28 04:29:23;;;;;;;2.67;1.70;;;;;;;2.93;75.86;94410.59;4965281;28;20035;-85
2022/11/28 04:31:50;;;;;;;4.82;1.80;;;;;;;2.92;76.09;94410.81;4965550;28;20250;-84
2022/11/28 04:34:19;;;;;;;3.90;2.13;;;;;;;2.96;76.00;94419.81;4965457;28;20027;-84
2022/11/28 04:36:48;;;;;;;4.45;2.38;;;;;;;2.97;75.80;94416.94;4965596;28;20023;-84
2022/11/28 04:39:20;;;;;;;3.55;1.90;;;;;;;2.99;75.86;94421.94;4965656;28;20023;-88
2022/11/28 04:41:56;;;;;;;5.97;2.45;;;;;;;2.99;75.90;94414.03;4965864;28;20030;-87
2022/11/28 04:44:28;;;;;;;4.55;2.03;;;;;;;2.97;75.91;94422.19;4965843;28;20325;-88
2022/11/28 04:46:56;;;;;;;4.10;1.95;;;;;;;2.97;75.75;94422.19;4965584;28;20030;-88
2022/11/28 04:49:24;;;;;;;3.67;1.90;;;;;;;2.90;75.94;94424.22;4965641;28;20057;-87
2022/11/28 04:52:13;;;;;;;3.88;2.10;;;;;;;2.92;76.11;94430.03;4965467;28;20996;-86
2022/11/28 04:54:49;;;;;;;3.85;2.00;;;;;;;2.90;75.80;94429.50;4965391;28;20236;-87
2022/11/28 04:57:31;;;;;;;3.53;1.85;;;;;;;2.91;75.94;94425.84;4996387;28;20023;-86
2022/11/28 04:59:57;;;;;;;;;;;;;;;2.88;75.95;94428.97;4965577;28;20162;-86
2022/11/28 05:02:24;;;;;;;4.32;2.00;;;;;;;2.89;76.05;94435.81;4964897;28;19933;-86
2022/11/28 05:04:54;;;;;;;3.22;1.88;;;;;;;2.88;76.19;94431.59;4965150;28;20093;-86
2022/11/28 05:07:20;;;;;;;3.63;2.20;;;;;;;2.89;75.98;94433.19;4964825;28;20100;-91
2022/11/28 05:09:46;;;;;;;29.00;9.98;;;;;;;2.89;76.15;94437.66;4965696;28;20311;-92
2022/11/28 05:12:11;;;;;;;17.55;7.38;;;;;;;2.91;76.35;94435.56;4966156;28;20027;-92
2022/11/28 05:14:37;;;;;;;7.10;3.78;;;;;;;2.92;76.05;94435.31;4965722;28;20023;-92
2022/11/28 05:17:02;;;;;;;3.95;2.22;;;;;;;2.95;75.95;94434.81;4965646;28;20277;-89
2022/11/28 05:19:28;;;;;;;4.47;2.60;;;;;;;2.98;75.80;94431.66;4965745;28;20046;-92
2022/11/28 05:21:53;;;;;;;4.60;2.78;;;;;;;2.99;75.79;94432.47;4965659;28;20027;-92
2022/11/28 05:24:19;;;;;;;5.28;2.65;;;;;;;2.97;75.49;94424.00;4965153;28;20221;-85
2022/11/28 05:26:44;;;;;;;5.50;2.58;;;;;;;2.96;75.54;94423.22;4964616;28;20239;-85
2022/11/28 05:29:10;;;;;;;6.10;2.38;;;;;;;2.92;76.01;94421.34;4964834;28;20030;-87
2022/11/28 05:31:36;;;;;;;4.20;2.58;;;;;;;2.92;75.87;94424.00;4964815;28;20069;-86
2022/11/28 05:34:05;;;;;;;4.78;2.70;;;;;;;2.89;75.84;94422.66;4964874;28;20042;-86
2022/11/28 05:36:30;;;;;;;3.72;2.25;;;;;;;2.89;75.86;94425.28;4964463;28;20380;-86
2022/11/28 05:38:56;;;;;;;4.82;2.40;;;;;;;2.84;75.76;94414.69;4964840;28;20027;-86
2022/11/28 05:41:27;;;;;;;10.65;3.13;;;;;;;2.80;75.78;94430.19;4967615;28;20095;-86
2022/11/28 05:43:53;;;;;;;9.10;5.43;;;;;;;2.78;76.15;94424.38;4968580;28;20019;-86
2022/11/28 05:46:19;;;;;;;4.07;2.50;;;;;;;2.79;76.23;94419.94;4968759;28;20035;-86
2022/11/28 05:48:44;;;;;;;8.98;2.83;;;;;;;2.83;76.20;94430.75;4999850;28;20027;-86
2022/11/28 05:51:10;;;;;;;4.95;2.90;;;;;;;2.84;76.21;94422.59;4968528;28;20026;-86
2022/11/28 05:53:36;;;;;;;5.75;3.08;;;;;;;2.88;76.11;94428.16;4967134;28;20026;-86
2022/11/28 05:56:13;;;;;;;7.65;4.35;;;;;;;2.84;76.15;94427.88;4968335;28;20389;-86
2022/11/28 05:58:39;;;;;;;5.93;3.92;;;;;;;2.81;76.28;94423.13;4968480;28;20094;-86
2022/11/28 06:01:17;;;;;;;5.50;3.45;;;;;;;2.85;76.15;94413.69;4968188;28;20023;-86
2022/11/28 06:03:43;;;;;;;6.03;3.75;;;;;;;2.84;76.25;94414.69;4967340;28;20199;-86
2022/11/28 06:06:30;;;;;;;7.18;3.35;;;;;;;2.90;75.95;94413.69;4968620;28;20030;-88
2022/11/28 06:08:55;;;;;;;8.02;3.53;;;;;;;2.93;75.76;94415.84;4999656;28;20023;-87
2022/11/28 06:11:23;;;;;;;18.60;4.32;;;;;;;2.96;75.75;94412.69;4968649;28;20019;-88
2022/11/28 06:13:48;;;;;;;5.68;3.25;;;;;;;2.98;75.49;94418.50;4968646;28;20034;-88
2022/11/28 06:16:22;;;;;;;7.45;3.45;;;;;;;3.01;75.67;94415.38;4968326;28;20063;-88
2022/11/28 06:18:51;;;;;;;7.40;3.50;;;;;;;3.05;75.51;94413.03;4967952;28;20019;-86
2022/11/28 06:21:17;;;;;;;7.78;4.05;;;;;;;3.07;75.59;94412.78;4967677;28;20333;-86
2022/11/28 06:23:42;;;;;;;15.20;5.32;;;;;;;3.11;75.43;94411.22;4998978;28;20019;-86
2022/11/28 06:26:11;;;;;;;11.00;5.68;;;;;;;3.16;75.43;94408.63;4967890;28;20428;-86
2022/11/28 06:28:37;;;;;;;12.32;6.07;;;;;;;3.18;75.37;94415.25;4967827;28;20282;-86
2022/11/28 06:31:04;;;;;;;13.18;5.15;;;;;;;3.16;75.23;94417.34;4967467;28;20019;-86
2022/11/28 06:33:32;;;;;;;11.05;5.28;;;;;;;3.20;75.38;94407.88;4967868;28;20019;-86
2022/11/28 06:35:59;;;;;;;10.82;7.38;;;;;;;3.22;75.26;94412.91;4967622;28;20046;-86
2022/11/28 06:38:25;;;;;;;10.30;5.55;;;;;;;3.22;75.18;94410.25;4967552;28;20098;-86
2022/11/28 06:40:50;;;;;;;15.20;5.57;;;;;;;3.25;74.86;94407.09;4967543;28;20057;-87
2022/11/28 06:43:16;;;;;;;11.13;5.05;;;;;;;3.27;75.15;94407.66;4967759;28;20023;-87
2022/11/28 06:45:41;;;;;;;10.32;5.47;;;;;;;3.26;75.10;94398.16;4966455;28;20019;-87
2022/11/28 06:48:06;;;;;;;11.45;5.00;;;;;;;3.28;74.81;94400.53;4967376;28;20015;-87
2022/11/28 06:50:32;;;;;;;13.50;6.20;;;;;;;3.30;74.70;94398.47;4967198;28;20221;-87
2022/11/28 06:52:57;;;;;;;10.35;5.65;;;;;;;3.29;74.65;94399.50;4967799;28;20309;-87
2022/11/28 06:55:23;;;;;;;13.30;6.22;;;;;;;3.27;74.37;94398.97;4967642;28;20026;-87
2022/11/28 06:57:48;;;;;;;7.15;4.72;;;;;;;3.29;74.26;94395.00;4967353;28;20046;-87
2022/11/28 07:00:14;;;;;;;13.25;4.93;;;;;;;3.28;74.08;94396.06;4966275;28;20077;-86
2022/11/28 07:02:40;;;;;;;8.38;4.50;;;;;;;3.25;74.03;94412.38;4967340;28;20211;-87
2022/11/28 07:05:06;;;;;;;9.68;4.75;;;;;;;3.21;73.94;94404.19;4967395;28;20023;-86
2022/11/28 07:07:31;;;;;;;9.30;4.68;;;;;;;3.22;73.98;94407.63;4966926;28;20318;-87
2022/11/28 07:09:56;;;;;;;9.35;5.63;;;;;;;3.21;74.05;94403.41;4967183;28;20046;-86
2022/11/28 07:12:22;;;;;;;11.48;5.90;;;;;;;3.18;74.22;94396.00;4967040;28;20026;-86
2022/11/28 07:14:47;;;;;;;9.55;4.53;;;;;;;3.20;74.09;94399.19;4967039;28;20034;-87
2022/11/28 07:17:13;;;;;;;11.20;4.93;;;;;;;3.23;74.02;94406.56;4966985;28;20352;-87
2022/11/28 07:19:38;;;;;;;9.10;4.85;;;;;;;3.27;74.15;94397.09;4967002;28;20062;-88
2022/11/28 07:22:04;;;;;;;14.25;5.38;;;;;;;3.29;73.93;94402.91;4965508;28;20221;-87
2022/11/28 07:24:56;;;;;;;10.68;5.82;;;;;;;3.33;73.83;94401.38;4966596;28;20043;-87
2022/11/28 07:27:21;;;;;;;16.60;6.38;;;;;;;3.35;73.92;94396.63;4960595;28;20039;-87
2022/11/28 07:29:47;;;;;;;9.57;4.85;;;;;;;3.38;73.40;94396.13;4965199;28;20058;-86
2022/11/28 07:32:12;;;;;;;12.90;5.22;;;;;;;3.39;73.15;94402.97;4966979;28;20015;-76
2022/11/28 07:34:40;;;;;;;8.60;4.65;;;;;;;3.45;73.03;94395.13;4966492;28;20314;-85
2022/11/28 07:37:05;;;;;;;7.97;4.53;;;;;;;3.47;72.95;94403.56;4966349;28;20030;-79
2022/11/28 07:39:31;;;;;;;10.40;6.45;;;;;;;3.41;72.85;94400.88;4966355;28;20023;-81
2022/11/28 07:41:56;;;;;;;19.63;6.30;;;;;;;3.47;72.91;94396.44;4966012;28;20091;-80
2022/11/28 07:44:22;;;;;;;11.77;5.10;;;;;;;3.49;72.76;94394.34;4966263;28;20031;-77
2022/11/28 07:46:47;;;;;;;14.35;6.18;;;;;;;3.52;73.52;94400.94;4965785;28;20070;-77
2022/11/28 07:49:13;;;;;;;13.30;6.05;;;;;;;3.51;74.21;94399.38;4965112;28;20400;-77
2022/11/28 07:51:39;;;;;;;12.98;5.95;;;;;;;3.55;75.05;94393.31;4966508;28;20246;-77
2022/11/28 07:54:06;;;;;;;11.02;5.13;;;;;;;3.61;74.86;94394.16;4966084;28;20118;-77
2022/11/28 07:56:34;;;;;;;12.35;5.93;;;;;;;3.68;74.90;94393.91;4966050;28;20090;-77
2022/11/28 07:58:59;;;;;;;7.70;4.60;;;;;;;3.75;74.35;94394.50;4965944;28;20042;-77
2022/11/28 08:01:28;;;;;;;11.77;6.25;;;;;;;3.85;74.60;94399.00;4965767;28;20281;-77
2022/11/28 08:03:54;;;;;;;10.63;5.28;;;;;;;3.91;74.18;94390.06;4964232;28;20031;-76
2022/11/28 08:06:27;;;;;;;8.95;4.90;;;;;;;3.95;74.43;94388.50;4965667;28;20023;-76
2022/11/28 08:08:54;;;;;;;9.05;5.18;;;;;;;4.07;73.83;94391.72;4964340;28;20293;-76
2022/11/28 08:11:22;;;;;;;7.95;4.13;;;;;;;4.13;73.45;94392.50;4964871;28;20019;-76
2022/11/28 08:13:48;;;;;;;10.18;4.57;;;;;;;4.25;73.17;94387.00;4963874;28;20026;-85
2022/11/28 08:16:17;;;;;;;10.65;5.32;;;;;;;4.27;72.46;94390.19;4963670;28;20039;-84
2022/11/28 08:18:43;;;;;;;9.60;4.68;;;;;;;4.29;72.30;94386.22;4963876;28;20202;-84
2022/11/28 08:21:14;;;;;;;8.10;4.60;;;;;;;4.38;72.01;94383.88;4963693;28;20026;-83
2022/11/28 08:23:40;;;;;;;14.23;5.35;;;;;;;4.46;71.81;94383.38;4963929;28;20034;-83
2022/11/28 08:26:09;;;;;;;10.85;4.68;;;;;;;4.52;71.56;94387.59;4995061;28;20015;-82
2022/11/28 08:28:35;;;;;;;11.27;5.57;;;;;;;4.60;71.07;94389.72;4965324;28;20023;-83
2022/11/28 08:31:15;;;;;;;14.05;5.38;;;;;;;4.73;70.86;94390.28;4965425;28;20030;-84
2022/11/28 08:33:42;;;;;;;8.55;4.82;;;;;;;4.81;70.38;94387.09;4965307;28;20023;-83
2022/11/28 08:36:10;;;;;;;11.40;5.22;;;;;;;4.83;70.07;94385.78;4965350;28;20039;-83
2022/11/28 08:38:36;;;;;;;8.90;4.35;;;;;;;4.87;69.00;94383.41;4965198;28;20098;-83
2022/11/28 08:41:05;;;;;;;7.13;3.90;;;;;;;4.83;68.71;94377.84;4964901;28;20058;-82
2022/11/28 08:43:30;;;;;;;7.78;3.67;;;;;;;4.73;68.77;94374.44;4965288;28;20027;-83
2022/11/28 08:45:56;;;;;;;6.13;3.78;;;;;;;4.72;69.22;94378.13;4965187;28;20034;-83
2022/11/28 08:48:21;;;;;;;6.28;3.70;;;;;;;4.75;69.23;94374.97;4965059;28;20065;-83
2022/11/28 08:50:48;;;;;;;5.95;3.45;;;;;;;4.72;69.33;94381.56;4965236;28;20225;-83
2022/11/28 08:53:13;;;;;;;7.07;3.80;;;;;;;4.70;69.00;94375.75;4965127;28;20198;-84
2022/11/28 08:55:43;;;;;;;7.35;4.20;;;;;;;4.70;69.38;94374.94;4963674;28;20153;-83
2022/11/28 08:58:12;;;;;;;8.68;4.60;;;;;;;4.63;69.32;94368.06;4965028;28;20023;-84
2022/11/28 09:00:39;;;;;;;7.82;4.07;;;;;;;4.62;70.18;94371.00;4965178;28;20023;-84
2022/11/28 09:03:04;;;;;;;11.02;5.20;;;;;;;4.68;70.68;94359.38;4964824;28;20034;-84
2022/11/28 09:05:30;;;;;;;11.23;4.40;;;;;;;4.75;70.62;94351.19;4963608;28;20027;-84
2022/11/28 09:07:56;;;;;;;8.73;4.78;;;;;;;4.75;71.04;94353.84;4964951;28;20091;-84
2022/11/28 09:10:22;;;;;;;6.95;4.03;;;;;;;4.76;70.51;94350.13;4963598;28;20078;-83
2022/11/28 09:12:48;;;;;;;7.43;3.70;;;;;;;4.78;69.96;94348.81;4964639;28;20019;-83
2022/11/28 09:15:13;;;;;;;7.47;4.63;;;;;;;4.81;70.28;94334.28;4964670;28;20305;-83
2022/11/28 09:17:39;;;;;;;9.45;5.03;;;;;;;4.83;70.08;94346.16;4964657;28;20114;-85
2022/11/28 09:20:07;;;;;;;7.32;4.13;;;;;;;4.82;70.15;94339.31;4964572;28;20022;-84
2022/11/28 09:22:33;;;;;;;10.82;4.82;;;;;;;4.91;70.61;94336.13;4964588;28;20102;-84
2022/11/28 09:24:58;;;;;;;8.48;3.78;;;;;;;4.93;70.52;94332.16;4964633;28;20139;-84
2022/11/28 09:27:24;;;;;;;7.78;3.80;;;;;;;4.94;69.75;94327.66;4964481;28;20055;-84
2022/11/28 09:29:49;;;;;;;8.50;4.07;;;;;;;4.90;70.45;94334.53;4964660;28;20090;-84
2022/11/28 09:32:15;;;;;;;7.72;4.35;;;;;;;4.94;70.65;94320.53;4995627;28;20065;-84
2022/11/28 09:34:40;;;;;;;11.43;4.22;;;;;;;5.03;70.83;94312.88;4964550;28;20019;-84
2022/11/28 09:37:06;;;;;;;5.60;3.60;;;;;;;5.21;70.32;94322.06;4963160;28;20265;-85
2022/11/28 09:39:31;;;;;;;6.45;3.65;;;;;;;5.30;70.17;94317.84;4964517;28;20019;-84
2022/11/28 09:42:02;;;;;;;4.97;3.28;;;;;;;5.40;69.52;94304.59;4964486;28;20062;-84
2022/11/28 09:44:34;;;;;;;4.93;2.77;;;;;;;5.43;69.31;94300.59;4995412;28;20216;-84
2022/11/28 09:47:08;;;;;;;4.63;3.00;;;;;;;5.42;68.90;94299.81;4964417;28;20030;-84
2022/11/28 09:49:44;;;;;;;7.55;4.00;;;;;;;5.38;69.49;94293.50;4964008;28;20361;-84
2022/11/28 09:52:12;;;;;;;7.53;3.92;;;;;;;5.42;70.32;94294.53;4964679;28;20099;-84
2022/11/28 09:54:47;;;;;;;6.53;3.58;;;;;;;5.51;69.80;94286.84;4964333;28;20027;-84
2022/11/28 09:57:22;;;;;;;6.28;3.70;;;;;;;5.59;68.98;94285.50;4964317;28;20050;-84
2022/11/28 09:59:48;;;;;;;7.28;3.55;;;;;;;5.65;68.92;94275.69;4964276;28;20019;-84
2022/11/28 10:02:33;;;;;;;6.63;3.47;;;;;;;5.70;67.44;94276.47;4963943;28;20027;-83
2022/11/28 10:05:02;;;;;;;5.28;3.13;;;;;;;5.65;66.47;94276.47;4964140;28;20183;-84
2022/11/28 10:07:43;;;;;;;6.95;3.33;;;;;;;5.65;66.32;94273.81;4963934;28;20090;-82
2022/11/28 10:10:31;;;;;;;7.97;3.00;;;;;;;5.69;66.37;94277.50;4964575;28;20102;-87
2022/11/28 10:13:00;;;;;;;11.05;4.32;;;;;;;5.68;66.22;94286.53;4955394;28;20171;-87
2022/11/28 10:15:36;;;;;;;5.25;2.70;;;;;;;5.67;66.18;94282.28;4964288;28;20060;-87
2022/11/28 10:18:34;;;;;;;4.65;2.47;;;;;;;5.70;66.07;94276.47;4964429;28;20114;-86
2022/11/28 10:21:18;;;;;;;4.35;2.70;;;;;;;5.65;65.24;94275.69;4964156;28;20090;-87
2022/11/28 10:23:46;;;;;;;4.00;2.40;;;;;;;5.59;66.02;94269.63;4964442;28;20111;-87
2022/11/28 10:26:14;;;;;;;5.45;2.72;;;;;;;5.61;66.44;94265.63;4965577;28;20073;-87
2022/11/28 10:28:45;;;;;;;6.10;2.78;;;;;;;5.68;65.88;94272.47;4999112;28;20031;-87
2022/11/28 10:31:28;;;;;;;7.32;3.05;;;;;;;5.70;65.52;94262.41;4999103;28;20064;-87
2022/11/28 10:34:02;;;;;;;4.32;2.30;;;;;;;5.71;65.89;94253.44;4967881;28;20055;-87
2022/11/28 10:36:33;;;;;;;5.15;3.15;;;;;;;5.73;65.80;94249.44;4967817;28;20026;-86
2022/11/28 10:39:10;;;;;;;5.03;2.83;;;;;;;5.84;66.36;94255.47;4967437;28;20094;-87
2022/11/28 10:42:10;;;;;;;5.18;2.53;;;;;;;5.91;65.03;94242.75;4967452;28;20039;-87
2022/11/28 10:44:50;;;;;;;3.95;2.28;;;;;;;5.97;63.37;94246.97;4998956;28;20046;-87
2022/11/28 10:47:28;;;;;;;4.07;2.10;;;;;;;6.04;64.19;94246.66;4967915;28;20019;-88
2022/11/28 10:50:03;;;;;;;3.83;1.80;;;;;;;6.09;63.65;94246.63;4967861;28;20023;-87
2022/11/28 10:52:37;;;;;;;6.97;2.90;;;;;;;6.16;62.83;94247.09;4967205;28;20069;-82
2022/11/28 10:55:26;;;;;;;3.90;2.10;;;;;;;6.30;62.49;94243.84;4998423;28;20462;-82
2022/11/28 10:58:08;;;;;;;3.10;1.63;;;;;;;6.42;61.74;94242.41;4967027;28;20034;-82
2022/11/28 11:00:36;;;;;;;3.70;2.20;;;;;;;6.50;61.63;94233.09;4967042;28;20229;-83
2022/11/28 11:03:02;;;;;;;5.60;1.90;;;;;;;6.61;61.39;94234.59;4967131;28;20195;-82
2022/11/28 11:05:34;;;;;;;3.60;2.38;;;;;;;6.80;60.50;94231.25;4966888;28;20027;-82
2022/11/28 11:08:19;;;;;;;4.68;1.90;;;;;;;6.99;59.87;94234.75;4966875;28;20038;-81
2022/11/28 11:11:06;;;;;;;3.53;2.25;;;;;;;7.17;58.83;94229.81;4966678;28;20031;-82
2022/11/28 11:13:52;;;;;;;5.03;2.00;;;;;;;7.25;58.98;94229.19;4966806;28;20310;-82
2022/11/28 11:16:17;;;;;;;10.63;2.53;;;;;;;7.43;59.15;94223.13;4966664;28;20039;-81
2022/11/28 11:18:43;;;;;;;5.97;2.25;;;;;;;7.56;58.27;94226.16;4966558;28;20372;-81
2022/11/28 11:21:16;;;;;;;7.68;2.38;;;;;;;7.66;58.13;94219.94;4966408;28;20274;-82
2022/11/28 11:23:43;;;;;;;5.18;2.95;;;;;;;7.78;57.09;94215.00;4966579;28;20023;-82
2022/11/28 11:26:27;;;;;;;4.18;2.00;;;;;;;7.82;56.74;94208.06;4966835;28;20050;-84
2022/11/28 11:28:54;;;;;;;5.03;2.20;;;;;;;7.92;56.96;94213.22;4966621;28;20305;-83
2022/11/28 11:31:30;;;;;;;4.15;2.42;;;;;;;8.03;56.59;94204.03;4966541;28;20171;-76
2022/11/28 11:34:05;;;;;;;5.30;2.97;;;;;;;8.04;56.20;94197.66;4966173;28;20130;-79
2022/11/28 11:36:35;;;;;;;7.53;3.30;;;;;;;7.98;56.81;94203.31;4966585;28;20241;-79
2022/11/28 11:39:10;;;;;;;5.10;2.20;;;;;;;8.05;56.50;94190.47;4964872;28;20027;-77
2022/11/28 11:41:38;;;;;;;6.63;2.90;;;;;;;8.12;56.99;94192.75;4966252;28;20097;-77
2022/11/28 11:44:12;;;;;;;6.78;2.60;;;;;;;8.22;55.82;94195.25;4966133;28;20035;-77
2022/11/28 11:47:06;;;;;;;9.27;4.55;;;;;;;8.25;55.63;94194.69;4966215;28;20055;-76
2022/11/28 11:49:37;;;;;;;15.43;3.20;;;;;;;8.34;55.05;94190.28;4966115;28;20437;-76
2022/11/28 11:52:11;;;;;;;9.65;2.97;;;;;;;8.36;54.63;94192.66;4966064;28;20250;-80
2022/11/28 11:54:38;;;;;;;9.23;3.17;;;;;;;8.41;54.87;94182.75;4966000;28;20073;-78
2022/11/28 11:57:05;;;;;;;12.07;3.20;;;;;;;8.49;54.45;94183.16;4965920;28;20233;-76
2022/11/28 11:59:39;;;;;;;7.90;2.80;;;;;;;8.45;53.58;94188.28;4966046;28;20061;-77